This is the latest recevied weather packets stored in our database for station/object YB3RDW-13. If no packets are shown the sender has not sent any weather packets the latest 10 day(s).
| Time | Temp. | Humidity | Pressure | Rain* | Wind** | Luminosity | Snow |
|---|---|---|---|---|---|---|---|
| 1777275418 | 25° C | 99% | 1009 hPa | 1.27 mm | - | 38 W/m² | - |
| 1777275117 | 25° C | 99% | 1009 hPa | 1.27 mm | - | 30 W/m² | - |
| 1777274818 | 25° C | 99% | 1009 hPa | 1.27 mm | - | 25 W/m² | - |
| 1777274517 | 24.44° C | 99% | 1009 hPa | 0 mm | - | 21 W/m² | - |
| 1777274218 | 24.44° C | 99% | 1009 hPa | 7.87 mm | - | 19 W/m² | - |
| 1777273918 | 24.44° C | 98% | 1009 hPa | 30.73 mm | - | 20 W/m² | - |
| 1777273618 | 23.89° C | 98% | 1009 hPa | 48.51 mm | - | 11 W/m² | - |
| 1777272417 | 29.44° C | 87% | 1009 hPa | 56.39 mm | - | 14 W/m² | - |
| 1777272118 | 30° C | 82% | 1009 hPa | 39.62 mm | - | 16 W/m² | - |
| 1777271817 | 31.11° C | 78% | 1009 hPa | 4.83 mm | - | 28 W/m² | - |
| 1777271518 | 31.11° C | 77% | 1009 hPa | 1.78 mm | - | 44 W/m² | - |
| 1777271217 | 31.11° C | 75% | 1009 hPa | 0 mm | - | 70 W/m² | - |
| 1777270918 | 31.67° C | 74% | 1009 hPa | 0 mm | - | 93 W/m² | - |
| 1777270617 | 31.67° C | 73% | 1009 hPa | 0 mm | - | 128 W/m² | - |
| 1777270317 | 32.22° C | 72% | 1009 hPa | 0 mm | - | 129 W/m² | - |
| 1777270017 | 32.22° C | 71% | 1009 hPa | 0 mm | - | 202 W/m² | - |
| 1777269717 | 32.78° C | 72% | 1009 hPa | 0 mm | - | 306 W/m² | - |
| 1777269417 | 32.22° C | 73% | 1009 hPa | 0 mm | - | 369 W/m² | - |
| 1777269118 | 31.67° C | 74% | 1009 hPa | 0 mm | - | 380 W/m² | - |
| 1777268820 | 31.67° C | 75% | 1009 hPa | 0 mm | - | 318 W/m² | - |
| 1777268517 | 31.67° C | 74% | 1009 hPa | 0 mm | - | 345 W/m² | - |
| 1777268218 | 31.67° C | 75% | 1009 hPa | 0 mm | - | 363 W/m² | - |
| 1777267918 | 31.67° C | 76% | 1010 hPa | 0 mm | - | 539 W/m² | - |
| 1777267617 | 31.11° C | 76% | 1009 hPa | 0 mm | - | 377 W/m² | - |
| 1777267317 | 31.67° C | 76% | 1010 hPa | 0 mm | - | 313 W/m² | - |
* Rain latest hour (hover to see other rain measurements)
** Current wind speed in m/s (hover to see current wind gust speed)